Elko, MN (55020)

5:25 PM CST on February 12, 2016 (GMT -0600)
Louis St. | | Change Station
CLOSE
Current Station
Personal Weather Station
Location: Elko New Market, MN
Elevation: 1129 ft
Nearby Weather Stations

Elev 1129 ft 44.57 °N, 93.36 °W | Updated 47 seconds ago

Clear
Clear
7.3 °F
Feels Like 1 °F
N
3.4
Wind Variable Wind from WNW
Gusts 4.9 mph

Today
High -- | Low -- °F
--% Chance of Precip.
Yesterday
High -- | Low -- °F
Precip. -- in
Pressure 30.50 in
Visibility 10.0 miles
Clouds Clear
Windchill 1 °F
Dew Point -18 °F
Humidity 29%
Rainfall 0.00 in
Snow Depth Not available.
7:18 AM 5:37 PM
Waxing Crescent, 24% visible
METAR KLVN 122255Z AUTO 31014G19KT 10SM CLR M14/M23 A3050 RMK AO2
Pressure 30.50 in
Visibility 10.0 miles
Clouds Clear
Windchill 1 °F
Dew Point -18 °F
Humidity 29%
Rainfall 0.00 in
Snow Depth Not available.
7:18 AM 5:37 PM
Waxing Crescent, 24% visible
METAR KLVN 122255Z AUTO 31014G19KT 10SM CLR M14/M23 A3050 RMK AO2

10-Day Weather Forecast

Almanac

Astronomy

Feb. 12, 2016 Rise Set
Actual Time
Civil Twilight
Nautical Twilight
Astronomical Twilight
Moon
Length of Visible Light
Length of Day
Tomorrow will be .
, % of the Moon is Illuminated

Today's Extremes

State Highs State Lows

Community

WunderPhotos

Upload Photos

1,892,436 photos uploaded!

WunderBlog® & News

Nearby

Air Quality

  Air Quality AQ Index Pollutant
Not available.

Snow Depth

Station Depth Elevation

Earthquake Activity

City Distance Mag. Time & Date
Minimum magnitude displayed is 2.5.

Coastal Water Temperatures

Place Temperature

Stations

Nearby Weather Stations

Station Location Temp. Windchill Dew Point Humidity Wind Precip. Elev Updated Type
                   

Watches & Warnings

There are currently no watches in effect.